createdAt,value
2023-11-06T00:02:21.267Z,10.70
2023-11-06T00:06:07.977Z,10.70
2023-11-06T00:09:36.597Z,10.69
2023-11-06T00:13:14.315Z,10.68
2023-11-06T00:17:00.027Z,10.68
2023-11-06T00:20:29.784Z,10.67
2023-11-06T00:24:14.499Z,10.65
2023-11-06T00:27:45.105Z,10.64
2023-11-06T00:31:22.774Z,10.65
2023-11-06T00:35:00.568Z,10.66
2023-11-06T00:38:46.171Z,10.68
2023-11-06T00:42:23.866Z,10.69
2023-11-06T00:46:01.634Z,10.70
2023-11-06T00:49:31.294Z,10.70
2023-11-06T00:53:09.093Z,10.69
2023-11-06T00:56:46.683Z,10.69
2023-11-06T01:00:25.427Z,10.70
2023-11-06T01:04:10.075Z,10.70
2023-11-06T01:07:47.758Z,10.71
2023-11-06T01:11:17.529Z,10.72
2023-11-06T01:15:03.643Z,10.73
2023-11-06T01:18:40.952Z,10.75
2023-11-06T01:22:11.517Z,10.79
2023-11-06T01:25:57.318Z,10.79
2023-11-06T01:29:26.002Z,10.80
2023-11-06T01:33:03.734Z,10.81
2023-11-06T01:36:48.332Z,10.81
2023-11-06T01:40:20.068Z,10.82
2023-11-06T01:43:59.856Z,10.83
2023-11-06T01:47:34.438Z,10.80
2023-11-06T01:51:20.085Z,10.75
2023-11-06T01:54:57.792Z,10.73
2023-11-06T01:58:28.485Z,10.71
2023-11-06T02:02:14.348Z,10.69
2023-11-06T02:05:43.957Z,10.66
2023-11-06T02:09:23.592Z,10.67
2023-11-06T02:13:07.255Z,10.68
2023-11-06T02:16:43.940Z,10.72
2023-11-06T02:20:21.745Z,10.76
2023-11-06T02:23:54.348Z,10.81
2023-11-06T02:27:29.001Z,10.86
2023-11-06T02:31:14.727Z,10.89
2023-11-06T02:34:47.689Z,10.92
2023-11-06T02:38:30.116Z,10.94
2023-11-06T02:42:07.929Z,10.96
2023-11-06T02:45:45.498Z,11.00
2023-11-06T02:49:18.183Z,11.02
2023-11-06T02:52:54.921Z,11.03
2023-11-06T02:56:40.596Z,11.04
2023-11-06T03:00:08.551Z,11.05
2023-11-06T03:03:46.057Z,11.06
2023-11-06T03:07:23.672Z,11.06
2023-11-06T03:11:09.452Z,11.08
2023-11-06T03:14:39.080Z,11.07
2023-11-06T03:18:16.825Z,11.05
2023-11-06T03:22:02.500Z,11.05
2023-11-06T03:25:36.216Z,11.03
2023-11-06T03:29:17.901Z,11.03
2023-11-06T03:32:47.699Z,11.03
2023-11-06T03:36:33.378Z,11.01
2023-11-06T03:40:13.007Z,10.98
2023-11-06T03:43:48.718Z,10.97
2023-11-06T03:47:26.456Z,10.93
2023-11-06T03:51:04.003Z,10.90
2023-11-06T03:54:33.753Z,10.89
2023-11-06T03:58:19.414Z,10.86
2023-11-06T04:01:49.238Z,10.86
2023-11-06T04:05:26.997Z,10.83
2023-11-06T04:09:04.526Z,10.82
2023-11-06T04:12:42.228Z,10.81
2023-11-06T04:16:19.975Z,10.79
2023-11-06T04:20:05.721Z,10.77
2023-11-06T04:23:43.287Z,10.78
2023-11-06T04:27:20.987Z,10.76
2023-11-06T04:30:50.713Z,10.76
2023-11-06T04:34:28.377Z,10.77
2023-11-06T04:38:15.092Z,10.75
2023-11-06T04:41:51.846Z,10.75
2023-11-06T04:45:24.544Z,10.78
2023-11-06T04:49:02.188Z,10.78
2023-11-06T04:52:40.013Z,10.79
2023-11-06T04:56:15.647Z,10.78
2023-11-06T05:00:00.293Z,10.78
2023-11-06T05:03:38.029Z,10.76
2023-11-06T05:07:07.652Z,10.78
2023-11-06T05:10:45.338Z,10.74
2023-11-06T05:14:31.083Z,10.73
2023-11-06T05:18:04.846Z,10.73
2023-11-06T05:21:48.458Z,10.76
2023-11-06T05:25:24.195Z,10.75
2023-11-06T05:28:56.854Z,10.74
2023-11-06T05:32:39.708Z,10.75
2023-11-06T05:36:19.238Z,10.77
2023-11-06T05:39:54.935Z,10.77
2023-11-06T05:43:32.607Z,10.77
2023-11-06T05:47:11.343Z,10.78
2023-11-06T05:50:47.998Z,10.79
2023-11-06T05:54:25.706Z,10.81
2023-11-06T05:58:03.403Z,10.81
2023-11-06T06:01:41.147Z,10.82
2023-11-06T06:05:18.927Z,10.81
2023-11-06T06:08:44.259Z,10.81
2023-11-06T06:11:13.664Z,10.79
2023-11-06T06:13:42.866Z,10.79
2023-11-06T06:16:12.089Z,10.80
2023-11-06T06:18:41.500Z,10.79
2023-11-06T06:21:10.776Z,10.80
2023-11-06T06:23:40.096Z,10.80
2023-11-06T06:26:09.361Z,10.78
2023-11-06T06:28:38.663Z,10.78
2023-11-06T06:31:07.960Z,10.78
2023-11-06T06:33:37.322Z,10.78
2023-11-06T06:36:12.336Z,10.80
2023-11-06T06:38:43.530Z,10.81
2023-11-06T06:41:12.769Z,10.82
2023-11-06T06:43:41.960Z,10.83
2023-11-06T06:46:39.122Z,10.83
2023-11-06T06:49:01.255Z,10.80
2023-11-06T06:51:30.654Z,10.78
2023-11-06T06:54:03.413Z,10.74
2023-11-06T06:56:32.818Z,10.70
2023-11-06T06:59:02.774Z,10.67
2023-11-06T07:01:31.984Z,10.67
2023-11-06T07:04:04.159Z,10.69
2023-11-06T07:06:34.562Z,10.71
2023-11-06T07:09:04.239Z,10.72
2023-11-06T07:11:33.474Z,10.76
2023-11-06T07:14:02.769Z,10.80
2023-11-06T07:16:32.181Z,10.80
2023-11-06T07:19:01.385Z,10.82
2023-11-06T07:21:30.625Z,10.85
2023-11-06T07:23:59.829Z,10.89
2023-11-06T07:26:29.609Z,10.92
2023-11-06T07:28:58.847Z,10.96
2023-11-06T07:31:28.051Z,11.01
2023-11-06T07:33:57.438Z,10.99
2023-11-06T07:36:47.380Z,10.98
2023-11-06T07:39:16.838Z,10.99
2023-11-06T07:41:46.541Z,11.02
2023-11-06T07:44:15.980Z,11.08
2023-11-06T07:46:45.328Z,11.11
2023-11-06T07:49:14.566Z,11.17
2023-11-06T07:51:43.926Z,11.23
2023-11-06T07:54:13.217Z,11.31
2023-11-06T07:56:44.100Z,11.36
2023-11-06T07:59:13.460Z,11.43
2023-11-06T08:01:42.681Z,11.50
2023-11-06T08:04:12.779Z,11.56
2023-11-06T08:06:43.268Z,11.66
2023-11-06T08:09:13.640Z,11.73
2023-11-06T08:11:42.999Z,11.80
2023-11-06T08:14:12.561Z,11.91
2023-11-06T08:16:44.882Z,12.09
2023-11-06T08:19:15.032Z,12.24
2023-11-06T08:21:44.466Z,12.37
2023-11-06T08:24:13.738Z,12.56
2023-11-06T08:26:43.155Z,12.81
2023-11-06T08:29:12.567Z,12.97
2023-11-06T08:31:41.801Z,13.02
2023-11-06T08:34:11.696Z,13.06
2023-11-06T08:36:44.859Z,13.16
2023-11-06T08:39:17.691Z,13.38
2023-11-06T08:41:47.362Z,13.45
2023-11-06T08:44:16.824Z,13.49
2023-11-06T08:46:46.610Z,13.50
2023-11-06T08:49:22.789Z,13.47
2023-11-06T08:51:55.146Z,13.42
2023-11-06T08:54:27.543Z,13.43
2023-11-06T08:56:59.094Z,13.32
2023-11-06T08:59:44.865Z,13.29
2023-11-06T09:02:19.564Z,13.26
2023-11-06T09:04:48.895Z,13.30
2023-11-06T09:07:18.887Z,13.35
2023-11-06T09:09:49.005Z,13.33
2023-11-06T09:12:18.880Z,13.37
2023-11-06T09:14:48.520Z,13.39
2023-11-06T09:17:17.734Z,13.42
2023-11-06T09:20:01.076Z,13.33
2023-11-06T09:23:10.786Z,13.21
2023-11-06T09:25:40.105Z,13.15
2023-11-06T09:28:09.382Z,13.14
2023-11-06T09:30:38.738Z,13.17
2023-11-06T09:33:08.451Z,13.21
2023-11-06T09:35:37.947Z,13.23
2023-11-06T09:38:08.482Z,13.23
2023-11-06T09:40:39.346Z,13.23
2023-11-06T09:43:08.919Z,13.24
2023-11-06T09:45:41.533Z,13.30
2023-11-06T09:48:14.713Z,13.38
2023-11-06T09:50:47.121Z,13.46
2023-11-06T09:53:16.800Z,13.49
2023-11-06T09:55:47.111Z,13.50
2023-11-06T09:58:16.449Z,13.52
2023-11-06T10:00:46.774Z,13.56
2023-11-06T10:03:39.696Z,13.77
2023-11-06T10:06:06.638Z,13.88
2023-11-06T10:08:40.640Z,13.93
2023-11-06T10:11:11.026Z,13.97
2023-11-06T10:13:52.081Z,13.90
2023-11-06T10:19:39.268Z,13.71
2023-11-06T10:22:16.430Z,13.62
2023-11-06T10:24:51.869Z,13.54
2023-11-06T10:27:26.075Z,13.50
2023-11-06T10:30:02.484Z,13.47
2023-11-06T10:32:33.205Z,13.44
2023-11-06T10:38:06.668Z,13.38
2023-11-06T10:40:38.481Z,13.33
2023-11-06T10:46:52.996Z,13.22
2023-11-06T10:49:27.894Z,13.17
2023-11-06T10:52:07.300Z,13.08
2023-11-06T10:54:36.834Z,12.96
2023-11-06T10:57:06.913Z,12.89
2023-11-06T10:59:36.478Z,12.88
2023-11-06T11:02:08.004Z,12.90
2023-11-06T11:04:37.734Z,12.94
2023-11-06T11:07:08.328Z,12.97
2023-11-06T11:09:37.616Z,13.01
2023-11-06T11:12:07.636Z,13.10
2023-11-06T11:14:36.902Z,13.18
2023-11-06T11:17:09.752Z,13.23
2023-11-06T11:19:39.577Z,13.25
2023-11-06T11:22:29.620Z,13.32
2023-11-06T11:24:59.181Z,13.38
2023-11-06T11:27:28.956Z,13.39
2023-11-06T11:30:10.330Z,13.42
2023-11-06T11:32:44.734Z,13.42
2023-11-06T11:35:31.374Z,13.45
2023-11-06T11:38:01.658Z,13.45
2023-11-06T11:40:59.236Z,13.43
2023-11-06T11:43:49.504Z,13.42
2023-11-06T11:47:26.227Z,13.45
2023-11-06T11:50:33.495Z,13.45
2023-11-06T11:53:03.241Z,13.47
2023-11-06T11:55:33.810Z,13.49
2023-11-06T11:58:05.219Z,13.47
2023-11-06T12:00:35.200Z,13.50
2023-11-06T12:03:08.144Z,13.51
2023-11-06T12:05:40.783Z,13.48
2023-11-06T12:08:20.201Z,13.44
2023-11-06T12:10:50.212Z,13.45
2023-11-06T12:13:22.057Z,13.46
2023-11-06T12:15:53.370Z,13.41
2023-11-06T12:18:23.707Z,13.36
2023-11-06T12:20:57.268Z,13.36
2023-11-06T12:23:31.365Z,13.30
2023-11-06T12:26:08.929Z,13.26
2023-11-06T12:28:42.115Z,13.26
2023-11-06T12:31:12.018Z,13.26
2023-11-06T12:33:44.360Z,13.30
2023-11-06T12:36:30.053Z,13.39
2023-11-06T12:39:00.873Z,13.46
2023-11-06T12:41:31.097Z,13.49
2023-11-06T12:44:02.184Z,13.52
2023-11-06T12:46:53.964Z,13.56
2023-11-06T12:49:44.130Z,13.59
2023-11-06T12:52:13.378Z,13.60
2023-11-06T12:54:42.798Z,13.60
2023-11-06T12:57:12.428Z,13.62
2023-11-06T12:59:41.759Z,13.59
2023-11-06T13:02:11.187Z,13.54
2023-11-06T13:04:40.840Z,13.53
2023-11-06T13:07:10.127Z,13.51
2023-11-06T13:09:39.534Z,13.48
2023-11-06T13:12:10.463Z,13.47
2023-11-06T13:14:41.483Z,13.47
2023-11-06T13:17:10.832Z,13.46
2023-11-06T13:19:40.580Z,13.42
2023-11-06T13:22:29.699Z,13.36
2023-11-06T13:24:58.903Z,13.34
2023-11-06T13:27:28.626Z,13.30
2023-11-06T13:29:57.864Z,13.28
2023-11-06T13:32:27.063Z,13.22
2023-11-06T13:34:56.439Z,13.18
2023-11-06T13:37:25.670Z,13.09
2023-11-06T13:39:55.127Z,12.98
2023-11-06T13:42:24.356Z,12.86
2023-11-06T13:44:53.613Z,12.82
2023-11-06T13:47:22.841Z,12.94
2023-11-06T13:49:52.167Z,12.98
2023-11-06T13:52:22.451Z,13.01
2023-11-06T13:54:51.796Z,13.04
2023-11-06T13:57:20.949Z,13.11
2023-11-06T13:59:50.213Z,13.09
2023-11-06T14:02:20.032Z,13.03
2023-11-06T14:04:49.280Z,12.93
2023-11-06T14:07:20.883Z,12.84
2023-11-06T14:09:50.126Z,12.74
2023-11-06T14:12:19.423Z,12.69
2023-11-06T14:14:48.739Z,12.74
2023-11-06T14:17:18.088Z,12.83
2023-11-06T14:19:47.345Z,12.93
2023-11-06T14:22:16.553Z,12.99
2023-11-06T14:24:45.802Z,12.96
2023-11-06T14:27:14.994Z,12.95
2023-11-06T14:29:44.298Z,12.86
2023-11-06T14:32:13.684Z,12.79
2023-11-06T14:34:42.890Z,12.70
2023-11-06T14:37:12.093Z,12.62
2023-11-06T14:39:41.287Z,12.54
2023-11-06T14:42:10.457Z,12.48
2023-11-06T14:45:10.383Z,12.41
2023-11-06T14:47:29.656Z,12.30
2023-11-06T14:49:58.933Z,12.23
2023-11-06T14:52:28.115Z,12.16
2023-11-06T14:54:57.313Z,12.10
2023-11-06T14:57:26.524Z,12.07
2023-11-06T14:59:58.529Z,12.02
2023-11-06T15:02:30.937Z,11.97
2023-11-06T15:05:00.299Z,11.89
2023-11-06T15:07:29.605Z,11.81
2023-11-06T15:09:58.942Z,11.71
2023-11-06T15:12:28.167Z,11.63
2023-11-06T15:15:00.008Z,11.54
2023-11-06T15:17:31.616Z,11.46
2023-11-06T15:20:00.846Z,11.38
2023-11-06T15:22:30.238Z,11.30
2023-11-06T15:24:59.492Z,11.23
2023-11-06T15:27:30.283Z,11.18
2023-11-06T15:29:59.626Z,11.15
2023-11-06T15:32:28.911Z,11.12
2023-11-06T15:34:59.005Z,11.09
2023-11-06T15:38:00.033Z,11.08
2023-11-06T15:40:22.812Z,11.09
2023-11-06T15:42:53.918Z,11.10
2023-11-06T15:45:23.130Z,11.11
2023-11-06T15:47:52.624Z,11.12
2023-11-06T15:50:22.479Z,11.13
2023-11-06T15:52:51.694Z,11.15
2023-11-06T15:55:20.908Z,11.16
2023-11-06T15:57:50.152Z,11.18
2023-11-06T16:00:19.693Z,11.21
2023-11-06T16:02:49.025Z,11.23
2023-11-06T16:05:18.427Z,11.24
2023-11-06T16:07:47.654Z,11.24
2023-11-06T16:10:16.855Z,11.25
2023-11-06T16:12:46.104Z,11.27
2023-11-06T16:15:15.374Z,11.26
2023-11-06T16:17:44.667Z,11.26
2023-11-06T16:20:14.516Z,11.25
2023-11-06T16:23:08.750Z,11.22
2023-11-06T16:25:35.261Z,11.24
2023-11-06T16:28:04.668Z,11.25
2023-11-06T16:30:33.850Z,11.26
2023-11-06T16:33:03.294Z,11.25
2023-11-06T16:35:32.861Z,11.22
2023-11-06T16:38:02.185Z,11.20
2023-11-06T16:40:32.010Z,11.18
2023-11-06T16:43:01.260Z,11.18
2023-11-06T16:45:30.489Z,11.18
2023-11-06T16:47:59.844Z,11.14
2023-11-06T16:50:29.377Z,11.12
2023-11-06T16:52:58.649Z,11.06
2023-11-06T16:55:27.871Z,11.02
2023-11-06T16:57:57.071Z,10.98
2023-11-06T17:00:28.796Z,10.94
2023-11-06T17:02:58.958Z,10.89
2023-11-06T17:05:29.195Z,10.84
2023-11-06T17:07:58.493Z,10.80
2023-11-06T17:10:27.742Z,10.75
2023-11-06T17:12:56.985Z,10.71
2023-11-06T17:15:26.201Z,10.66
2023-11-06T17:17:55.701Z,10.62
2023-11-06T17:20:25.166Z,10.58
2023-11-06T17:22:54.410Z,10.53
2023-11-06T17:25:23.687Z,10.50
2023-11-06T17:28:00.764Z,10.46
2023-11-06T17:30:55.084Z,10.42
2023-11-06T17:33:22.311Z,10.39
2023-11-06T17:35:51.605Z,10.37
2023-11-06T17:38:42.549Z,10.37
2023-11-06T17:41:14.647Z,10.37
2023-11-06T17:43:46.267Z,10.37
2023-11-06T17:46:16.749Z,10.39
2023-11-06T17:48:46.199Z,10.40
2023-11-06T17:51:35.418Z,10.45
2023-11-06T17:54:04.799Z,10.51
2023-11-06T17:56:36.934Z,10.53
2023-11-06T17:59:11.573Z,10.54
2023-11-06T18:01:43.916Z,10.54
2023-11-06T18:04:16.224Z,10.51
2023-11-06T18:07:05.428Z,10.48
2023-11-06T18:09:40.378Z,10.44
2023-11-06T18:12:12.199Z,10.40
2023-11-06T18:14:41.500Z,10.37
2023-11-06T18:17:15.081Z,10.34
2023-11-06T18:20:12.367Z,10.30
2023-11-06T18:22:57.808Z,10.25
2023-11-06T18:25:29.381Z,10.22
2023-11-06T18:28:18.523Z,10.19
2023-11-06T18:30:58.303Z,10.16
2023-11-06T18:33:27.634Z,10.14
2023-11-06T18:35:56.982Z,10.12
2023-11-06T18:38:26.269Z,10.12
2023-11-06T18:40:55.543Z,10.14
2023-11-06T18:43:24.749Z,10.17
2023-11-06T18:45:54.101Z,10.21
2023-11-06T18:48:23.371Z,10.24
2023-11-06T18:50:52.790Z,10.27
2023-11-06T18:53:22.027Z,10.30
2023-11-06T18:55:51.286Z,10.32
2023-11-06T18:58:20.528Z,10.33
2023-11-06T19:00:49.755Z,10.37
2023-11-06T19:03:19.089Z,10.40
2023-11-06T19:05:50.513Z,10.44
2023-11-06T19:08:21.964Z,10.47
2023-11-06T19:10:52.600Z,10.50
2023-11-06T19:13:21.831Z,10.53
2023-11-06T19:15:51.056Z,10.54
2023-11-06T19:18:30.877Z,10.54
2023-11-06T19:21:00.367Z,10.52
2023-11-06T19:23:29.650Z,10.47
2023-11-06T19:26:06.677Z,10.43
2023-11-06T19:28:35.915Z,10.37
2023-11-06T19:31:05.608Z,10.34
2023-11-06T19:33:34.935Z,10.31
2023-11-06T19:36:04.549Z,10.29
2023-11-06T19:38:34.000Z,10.27
2023-11-06T19:41:03.205Z,10.24
2023-11-06T19:43:32.400Z,10.21
2023-11-06T19:46:01.617Z,10.19
2023-11-06T19:48:31.145Z,10.16
2023-11-06T19:51:01.279Z,10.13
2023-11-06T19:53:30.563Z,10.07
2023-11-06T19:55:59.877Z,10.01
2023-11-06T19:58:29.299Z,9.95
2023-11-06T20:00:58.592Z,9.91
2023-11-06T20:03:28.006Z,9.87
2023-11-06T20:05:57.672Z,9.84
2023-11-06T20:08:26.926Z,9.80
2023-11-06T20:10:56.118Z,9.78
2023-11-06T20:13:25.377Z,9.74
2023-11-06T20:15:54.605Z,9.71
2023-11-06T20:18:23.926Z,9.70
2023-11-06T20:20:53.309Z,9.65
2023-11-06T20:23:22.624Z,9.62
2023-11-06T20:25:51.926Z,9.59
2023-11-06T20:28:21.132Z,9.57
2023-11-06T20:30:50.388Z,9.54
2023-11-06T20:33:19.817Z,9.49
2023-11-06T20:35:49.140Z,9.47
2023-11-06T20:38:18.350Z,9.44
2023-11-06T20:40:47.604Z,9.41
2023-11-06T20:43:16.880Z,9.38
2023-11-06T20:45:46.312Z,9.36
2023-11-06T20:48:15.610Z,9.34
2023-11-06T20:50:47.472Z,9.34
2023-11-06T20:53:17.609Z,9.31
2023-11-06T20:55:47.294Z,9.30
2023-11-06T20:58:16.468Z,9.28
2023-11-06T21:00:46.086Z,9.23
2023-11-06T21:03:15.383Z,9.20
2023-11-06T21:05:44.787Z,9.17
2023-11-06T21:08:14.093Z,9.13
2023-11-06T21:10:43.445Z,9.14
2023-11-06T21:13:43.671Z,9.12
2023-11-06T21:16:34.306Z,9.09
2023-11-06T21:18:52.671Z,9.10
2023-11-06T21:21:21.928Z,9.10
2023-11-06T21:23:51.114Z,9.11
2023-11-06T21:26:20.352Z,9.11
2023-11-06T21:28:49.869Z,9.10
2023-11-06T21:31:38.992Z,9.07
2023-11-06T21:34:08.302Z,9.03
2023-11-06T21:37:11.194Z,8.95
2023-11-06T21:39:40.489Z,8.91
2023-11-06T21:42:10.591Z,8.89
2023-11-06T21:44:39.810Z,8.85
2023-11-06T21:47:09.126Z,8.83
2023-11-06T21:49:40.199Z,8.81
2023-11-06T21:52:09.441Z,8.78
2023-11-06T21:54:46.909Z,8.79
2023-11-06T21:57:21.107Z,8.78
2023-11-06T21:59:50.367Z,8.79
2023-11-06T22:02:19.554Z,8.81
2023-11-06T22:04:48.844Z,8.81
2023-11-06T22:07:18.268Z,8.79
2023-11-06T22:09:49.734Z,8.79
2023-11-06T22:12:19.118Z,8.80
2023-11-06T22:14:48.597Z,8.78
2023-11-06T22:17:17.791Z,8.78
2023-11-06T22:19:47.082Z,8.75
2023-11-06T22:22:16.342Z,8.73
2023-11-06T22:24:45.527Z,8.70
2023-11-06T22:27:14.784Z,8.67
2023-11-06T22:29:43.967Z,8.64
2023-11-06T22:32:13.439Z,8.63
2023-11-06T22:34:42.645Z,8.61
2023-11-06T22:37:11.946Z,8.59
2023-11-06T22:39:41.259Z,8.57
2023-11-06T22:42:10.551Z,8.57
2023-11-06T22:44:39.831Z,8.58
2023-11-06T22:47:09.021Z,8.58
2023-11-06T22:49:38.324Z,8.60
2023-11-06T22:52:07.700Z,8.63
2023-11-06T22:54:37.032Z,8.67
2023-11-06T22:57:08.126Z,8.70
2023-11-06T22:59:37.503Z,8.71
2023-11-06T23:02:07.636Z,8.74
2023-11-06T23:04:36.916Z,8.73
2023-11-06T23:07:06.228Z,8.73
2023-11-06T23:09:35.417Z,8.73
2023-11-06T23:12:05.255Z,8.74
2023-11-06T23:14:34.476Z,8.78
2023-11-06T23:17:03.843Z,8.83
2023-11-06T23:19:33.112Z,8.86
2023-11-06T23:22:02.480Z,8.89
2023-11-06T23:24:31.698Z,8.94
2023-11-06T23:27:00.884Z,8.98
2023-11-06T23:29:30.183Z,9.03
2023-11-06T23:31:59.414Z,9.06
2023-11-06T23:34:28.627Z,9.10
2023-11-06T23:36:57.814Z,9.14
2023-11-06T23:39:26.997Z,9.15
2023-11-06T23:41:56.231Z,9.18
2023-11-06T23:44:25.497Z,9.21
2023-11-06T23:46:54.738Z,9.22
2023-11-06T23:49:25.076Z,9.24
2023-11-06T23:51:55.339Z,9.27
2023-11-06T23:54:24.681Z,9.29
2023-11-06T23:56:53.868Z,9.32
2023-11-06T23:59:23.141Z,9.34
